Time,TemperatureF,DewpointF,PressureIn,WindDirection,WindDirectionDegrees,WindSpeedMPH,WindSpeedGustMPH,Humidity,HourlyPrecipIn,Conditions,Clouds,dailyrainin,SolarRadiationWatts/m^2,SoftwareType,DateUTC
2013-07-24 00:02:00,65.7,53.2,29.94,NW,305,3.0,8.0,63,0.00,,,0.00,0.0,meteohub,2013-07-24 07:02:00,
2013-07-24 00:07:00,65.7,53.2,29.94,WSW,248,4.0,8.0,63,0.00,,,0.00,0.0,meteohub,2013-07-24 07:07:00,
2013-07-24 00:12:00,65.7,53.6,29.94,WSW,244,0.0,8.0,64,0.00,,,0.00,0.0,meteohub,2013-07-24 07:12:00,
2013-07-24 00:17:00,65.5,53.4,29.94,West,277,3.0,7.0,64,0.00,,,0.00,0.0,meteohub,2013-07-24 07:17:00,
2013-07-24 00:22:00,65.1,53.4,29.94,West,277,2.0,7.0,65,0.00,,,0.00,0.0,meteohub,2013-07-24 07:22:00,
2013-07-24 00:27:00,64.8,53.2,29.94,WNW,286,1.0,6.0,65,0.00,,,0.00,0.0,meteohub,2013-07-24 07:27:00,
2013-07-24 00:32:00,64.9,53.2,29.94,WNW,286,0.0,5.0,65,0.00,,,0.00,0.0,meteohub,2013-07-24 07:32:00,
2013-07-24 00:37:00,64.8,53.2,29.94,WNW,286,0.0,5.0,65,0.00,,,0.00,0.0,meteohub,2013-07-24 07:37:00,
2013-07-24 00:42:00,64.4,53.2,29.94,WNW,286,0.0,3.0,66,0.00,,,0.00,0.0,meteohub,2013-07-24 07:42:00,
2013-07-24 00:47:00,64.2,53.4,29.94,WNW,286,0.0,2.0,67,0.00,,,0.00,0.0,meteohub,2013-07-24 07:47:00,
2013-07-24 00:52:00,64.0,53.2,29.94,WNW,286,0.0,2.0,67,0.00,,,0.00,0.0,meteohub,2013-07-24 07:52:00,
2013-07-24 00:57:00,64.2,53.8,29.94,West,281,0.0,5.0,68,0.00,,,0.00,0.0,meteohub,2013-07-24 07:57:00,
2013-07-24 01:02:00,64.2,53.8,29.94,West,262,0.0,6.0,68,0.00,,,0.00,0.0,meteohub,2013-07-24 08:02:00,
2013-07-24 01:07:00,64.0,53.6,29.94,West,262,0.0,6.0,68,0.00,,,0.00,0.0,meteohub,2013-07-24 08:07:00,
2013-07-24 01:12:00,63.7,53.8,29.94,West,262,0.0,6.0,69,0.00,,,0.00,0.0,meteohub,2013-07-24 08:12:00,
2013-07-24 01:17:00,63.5,53.6,29.94,West,262,0.0,2.0,69,0.00,,,0.00,0.0,meteohub,2013-07-24 08:17:00,
2013-07-24 01:22:00,63.5,53.6,29.94,West,262,0.0,2.0,69,0.00,,,0.00,0.0,meteohub,2013-07-24 08:22:00,
2013-07-24 01:27:00,63.1,53.6,29.94,West,262,0.0,2.0,70,0.00,,,0.00,0.0,meteohub,2013-07-24 08:27:00,
2013-07-24 01:32:00,62.4,53.2,29.94,West,262,0.0,1.0,71,0.00,,,0.00,0.0,meteohub,2013-07-24 08:32:00,
2013-07-24 01:37:00,62.1,53.1,29.93,West,262,0.0,1.0,71,0.00,,,0.00,0.0,meteohub,2013-07-24 08:37:00,
2013-07-24 01:42:00,62.4,53.2,29.93,West,262,0.0,2.0,71,0.00,,,0.00,0.0,meteohub,2013-07-24 08:42:00,
2013-07-24 01:47:00,62.2,53.2,29.93,West,262,0.0,2.0,71,0.00,,,0.00,0.0,meteohub,2013-07-24 08:47:00,
2013-07-24 01:52:00,61.9,53.1,29.93,West,262,0.0,2.0,72,0.00,,,0.00,0.0,meteohub,2013-07-24 08:52:00,
2013-07-24 01:57:00,61.5,53.2,29.93,West,262,0.0,0.0,73,0.00,,,0.00,0.0,meteohub,2013-07-24 08:57:00,
2013-07-24 02:02:00,61.9,53.2,29.93,West,262,0.0,0.0,72,0.00,,,0.00,0.0,meteohub,2013-07-24 09:02:00,
2013-07-24 02:08:00,61.5,52.9,29.93,West,262,0.0,0.0,72,0.00,,,0.00,0.0,meteohub,2013-07-24 09:08:00,
2013-07-24 02:13:00,61.0,53.1,29.93,West,262,0.0,0.0,74,0.00,,,0.00,0.0,meteohub,2013-07-24 09:13:00,
2013-07-24 02:18:00,61.2,53.2,29.93,West,262,0.0,0.0,74,0.00,,,0.00,0.0,meteohub,2013-07-24 09:18:00,
2013-07-24 02:23:00,61.3,53.2,29.93,West,262,0.0,0.0,74,0.00,,,0.00,0.0,meteohub,2013-07-24 09:23:00,
2013-07-24 02:28:00,60.4,52.5,29.92,West,262,0.0,0.0,74,0.00,,,0.00,0.0,meteohub,2013-07-24 09:28:00,
2013-07-24 02:33:00,59.9,52.7,29.93,West,262,0.0,0.0,76,0.00,,,0.00,0.0,meteohub,2013-07-24 09:33:00,
2013-07-24 02:38:00,60.4,53.4,29.93,West,262,0.0,0.0,77,0.00,,,0.00,0.0,meteohub,2013-07-24 09:38:00,
2013-07-24 02:43:00,60.1,53.2,29.93,West,262,0.0,0.0,77,0.00,,,0.00,0.0,meteohub,2013-07-24 09:43:00,
2013-07-24 02:49:00,60.1,53.2,29.93,West,262,0.0,0.0,77,0.00,,,0.00,0.0,meteohub,2013-07-24 09:49:00,
2013-07-24 02:54:00,60.3,53.2,29.93,West,262,0.0,1.0,77,0.00,,,0.00,0.0,meteohub,2013-07-24 09:54:00,
2013-07-24 02:59:00,60.1,52.9,29.93,West,262,1.0,3.0,76,0.00,,,0.00,0.0,meteohub,2013-07-24 09:59:00,
2013-07-24 03:04:00,60.1,53.2,29.93,West,262,0.0,3.0,77,0.00,,,0.00,0.0,meteohub,2013-07-24 10:04:00,
2013-07-24 03:09:00,60.3,53.1,29.93,West,262,0.0,3.0,76,0.00,,,0.00,0.0,meteohub,2013-07-24 10:09:00,
2013-07-24 03:14:00,59.7,52.9,29.92,West,262,0.0,1.0,77,0.00,,,0.00,0.0,meteohub,2013-07-24 10:14:00,
2013-07-24 03:19:00,59.5,52.7,29.92,West,262,0.0,1.0,77,0.00,,,0.00,0.0,meteohub,2013-07-24 10:19:00,
2013-07-24 03:24:00,60.1,53.2,29.92,West,262,0.0,1.0,77,0.00,,,0.00,0.0,meteohub,2013-07-24 10:24:00,
2013-07-24 03:30:00,60.6,53.2,29.93,West,262,0.0,1.0,76,0.00,,,0.00,0.0,meteohub,2013-07-24 10:30:00,
2013-07-24 03:35:00,60.1,52.9,29.93,West,262,0.0,1.0,76,0.00,,,0.00,0.0,meteohub,2013-07-24 10:35:00,
2013-07-24 03:40:00,59.4,52.9,29.93,West,262,0.0,1.0,78,0.00,,,0.00,0.0,meteohub,2013-07-24 10:40:00,
2013-07-24 03:45:00,59.2,53.1,29.92,West,262,0.0,0.0,79,0.00,,,0.00,0.0,meteohub,2013-07-24 10:45:00,
2013-07-24 03:50:00,59.5,53.2,29.92,West,262,0.0,0.0,79,0.00,,,0.00,0.0,meteohub,2013-07-24 10:50:00,
2013-07-24 03:55:00,59.9,53.6,29.92,West,262,0.0,0.0,79,0.00,,,0.00,0.0,meteohub,2013-07-24 10:55:00,
2013-07-24 04:00:00,59.5,53.1,29.92,West,262,0.0,0.0,78,0.00,,,0.00,0.0,meteohub,2013-07-24 11:00:00,
2013-07-24 04:06:00,59.7,53.4,29.92,West,262,0.0,1.0,79,0.00,,,0.00,0.0,meteohub,2013-07-24 11:06:00,
2013-07-24 04:11:00,59.4,52.9,29.92,West,262,0.0,1.0,78,0.00,,,0.00,0.0,meteohub,2013-07-24 11:11:00,
2013-07-24 04:16:00,59.4,53.4,29.93,West,262,0.0,1.0,80,0.00,,,0.00,0.0,meteohub,2013-07-24 11:16:00,
2013-07-24 04:21:00,59.0,53.4,29.93,West,262,0.0,0.0,81,0.00,,,0.00,0.0,meteohub,2013-07-24 11:21:00,
2013-07-24 04:26:00,59.0,53.4,29.92,West,262,0.0,0.0,81,0.00,,,0.00,0.0,meteohub,2013-07-24 11:26:00,
2013-07-24 04:31:00,59.4,54.1,29.92,West,262,0.0,1.0,82,0.00,,,0.00,0.0,meteohub,2013-07-24 11:31:00,
2013-07-24 04:36:00,58.6,53.2,29.92,West,262,0.0,1.0,81,0.00,,,0.00,0.0,meteohub,2013-07-24 11:36:00,
2013-07-24 04:41:00,58.6,53.2,29.92,West,262,0.0,0.0,81,0.00,,,0.00,0.0,meteohub,2013-07-24 11:41:00,
2013-07-24 04:46:00,59.0,53.8,29.93,West,262,0.0,0.0,82,0.00,,,0.00,0.0,meteohub,2013-07-24 11:46:00,
2013-07-24 04:51:00,59.0,53.4,29.93,West,262,0.0,0.0,81,0.00,,,0.00,0.0,meteohub,2013-07-24 11:51:00,
2013-07-24 04:57:00,58.3,53.2,29.93,West,262,0.0,0.0,82,0.00,,,0.00,0.0,meteohub,2013-07-24 11:57:00,
2013-07-24 05:02:00,58.3,53.4,29.93,West,262,0.0,0.0,83,0.00,,,0.00,0.0,meteohub,2013-07-24 12:02:00,
2013-07-24 05:07:00,58.6,53.6,29.93,West,262,0.0,0.0,83,0.00,,,0.00,0.0,meteohub,2013-07-24 12:07:00,
2013-07-24 05:12:00,58.5,53.2,29.93,West,262,0.0,0.0,82,0.00,,,0.00,0.0,meteohub,2013-07-24 12:12:00,
2013-07-24 05:17:00,57.7,53.1,29.93,West,262,0.0,0.0,83,0.00,,,0.00,0.0,meteohub,2013-07-24 12:17:00,
2013-07-24 05:22:00,57.7,52.7,29.93,West,262,0.0,0.0,82,0.00,,,0.00,0.0,meteohub,2013-07-24 12:22:00,
2013-07-24 05:27:00,57.7,53.2,29.93,West,262,0.0,0.0,84,0.00,,,0.00,0.0,meteohub,2013-07-24 12:27:00,
2013-07-24 05:32:00,57.9,53.2,29.94,West,262,1.0,2.0,83,0.00,,,0.00,0.0,meteohub,2013-07-24 12:32:00,
2013-07-24 05:37:00,58.3,53.4,29.94,West,262,0.0,3.0,83,0.00,,,0.00,0.0,meteohub,2013-07-24 12:37:00,
2013-07-24 05:42:00,58.6,53.6,29.94,West,262,0.0,3.0,83,0.00,,,0.00,0.0,meteohub,2013-07-24 12:42:00,
2013-07-24 05:47:00,59.4,54.3,29.94,West,262,1.0,3.0,83,0.00,,,0.00,0.0,meteohub,2013-07-24 12:47:00,
2013-07-24 05:52:00,59.5,53.6,29.94,West,262,0.0,2.0,80,0.00,,,0.00,0.0,meteohub,2013-07-24 12:52:00,
2013-07-24 05:57:00,58.3,53.2,29.94,West,262,0.0,2.0,82,0.00,,,0.00,0.0,meteohub,2013-07-24 12:57:00,
2013-07-24 06:02:00,57.7,53.2,29.94,West,262,0.0,1.0,84,0.00,,,0.00,0.0,meteohub,2013-07-24 13:02:00,
2013-07-24 06:07:00,57.7,53.4,29.94,West,262,0.0,0.0,85,0.00,,,0.00,5.0,meteohub,2013-07-24 13:07:00,
2013-07-24 06:12:00,57.7,53.4,29.94,West,262,0.0,1.0,85,0.00,,,0.00,7.0,meteohub,2013-07-24 13:12:00,
2013-07-24 06:18:00,58.1,53.8,29.94,West,262,0.0,1.0,85,0.00,,,0.00,9.0,meteohub,2013-07-24 13:18:00,
2013-07-24 06:23:00,58.5,54.1,29.94,West,262,0.0,0.0,85,0.00,,,0.00,11.0,meteohub,2013-07-24 13:23:00,
2013-07-24 06:28:00,58.3,53.6,29.94,West,262,0.0,0.0,84,0.00,,,0.00,12.0,meteohub,2013-07-24 13:28:00,
2013-07-24 06:33:00,58.5,53.8,29.94,West,262,0.0,1.0,84,0.00,,,0.00,16.0,meteohub,2013-07-24 13:33:00,
2013-07-24 06:38:00,59.4,54.7,29.94,West,262,0.0,2.0,84,0.00,,,0.00,18.0,meteohub,2013-07-24 13:38:00,
2013-07-24 06:43:00,60.1,54.7,29.94,West,262,0.0,2.0,82,0.00,,,0.00,19.0,meteohub,2013-07-24 13:43:00,
2013-07-24 06:48:00,59.9,54.3,29.94,West,262,2.0,2.0,81,0.00,,,0.00,25.0,meteohub,2013-07-24 13:48:00,
2013-07-24 06:53:00,59.9,54.5,29.95,West,262,1.0,2.0,82,0.00,,,0.00,44.0,meteohub,2013-07-24 13:53:00,
2013-07-24 06:58:00,60.8,55.2,29.95,West,262,0.0,2.0,81,0.00,,,0.00,72.0,meteohub,2013-07-24 13:58:00,
2013-07-24 07:04:00,61.7,55.6,29.95,West,262,0.0,2.0,80,0.00,,,0.00,86.0,meteohub,2013-07-24 14:04:00,
2013-07-24 07:09:00,62.4,55.8,29.95,West,262,0.0,2.0,78,0.00,,,0.00,102.0,meteohub,2013-07-24 14:09:00,
2013-07-24 07:14:00,62.6,55.9,29.95,West,262,0.0,2.0,78,0.00,,,0.00,118.0,meteohub,2013-07-24 14:14:00,
2013-07-24 07:19:00,63.1,56.5,29.95,West,262,0.0,1.0,78,0.00,,,0.00,135.0,meteohub,2013-07-24 14:19:00,
2013-07-24 07:24:00,63.9,56.8,29.95,West,262,2.0,2.0,77,0.00,,,0.00,151.0,meteohub,2013-07-24 14:24:00,
2013-07-24 07:29:00,64.0,56.7,29.95,West,262,1.0,2.0,76,0.00,,,0.00,169.0,meteohub,2013-07-24 14:29:00,
2013-07-24 07:34:00,64.6,57.2,29.95,West,262,0.0,2.0,76,0.00,,,0.00,185.0,meteohub,2013-07-24 14:34:00,
2013-07-24 07:40:00,65.3,57.2,29.95,West,262,1.0,2.0,74,0.00,,,0.00,199.0,meteohub,2013-07-24 14:40:00,
2013-07-24 07:45:00,65.8,57.4,29.95,South,188,1.0,2.0,73,0.00,,,0.00,214.0,meteohub,2013-07-24 14:45:00,
2013-07-24 07:50:00,66.4,56.8,29.95,South,188,0.0,3.0,70,0.00,,,0.00,230.0,meteohub,2013-07-24 14:50:00,
2013-07-24 07:55:00,66.9,57.4,29.95,South,188,0.0,3.0,70,0.00,,,0.00,244.0,meteohub,2013-07-24 14:55:00,
2013-07-24 08:00:00,67.5,57.0,29.95,South,188,0.0,1.0,68,0.00,,,0.00,262.0,meteohub,2013-07-24 15:00:00,
2013-07-24 08:05:00,67.6,57.2,29.95,ENE,78,2.0,2.0,68,0.00,,,0.00,278.0,meteohub,2013-07-24 15:05:00,
2013-07-24 08:10:00,67.6,56.8,29.95,ENE,78,0.0,3.0,67,0.00,,,0.00,294.0,meteohub,2013-07-24 15:10:00,
2013-07-24 08:15:00,68.5,57.2,29.95,ENE,78,2.0,3.0,66,0.00,,,0.00,309.0,meteohub,2013-07-24 15:15:00,
2013-07-24 08:21:00,68.9,57.2,29.95,ENE,78,1.0,3.0,65,0.00,,,0.00,325.0,meteohub,2013-07-24 15:21:00,
2013-07-24 08:26:00,69.3,57.2,29.95,East,90,0.0,2.0,64,0.00,,,0.00,341.0,meteohub,2013-07-24 15:26:00,
2013-07-24 08:31:00,70.0,57.4,29.95,East,90,1.0,2.0,63,0.00,,,0.00,357.0,meteohub,2013-07-24 15:31:00,
2013-07-24 08:36:00,70.5,57.4,29.95,East,90,0.0,3.0,62,0.00,,,0.00,371.0,meteohub,2013-07-24 15:36:00,
2013-07-24 08:42:00,70.9,57.7,29.95,SSE,157,2.0,3.0,62,0.00,,,0.00,390.0,meteohub,2013-07-24 15:42:00,
2013-07-24 08:47:00,71.6,57.9,29.95,South,182,3.0,5.0,61,0.00,,,0.00,406.0,meteohub,2013-07-24 15:47:00,
2013-07-24 08:52:00,71.6,57.2,29.95,SE,144,2.0,6.0,59,0.00,,,0.00,422.0,meteohub,2013-07-24 15:52:00,
2013-07-24 08:57:00,71.8,57.0,29.95,SSE,167,1.0,6.0,58,0.00,,,0.00,434.0,meteohub,2013-07-24 15:57:00,
2013-07-24 09:02:00,72.5,57.2,29.95,South,171,3.0,6.0,57,0.00,,,0.00,450.0,meteohub,2013-07-24 16:02:00,
2013-07-24 09:07:00,73.4,57.6,29.95,SSE,166,1.0,6.0,56,0.00,,,0.00,462.0,meteohub,2013-07-24 16:07:00,
2013-07-24 09:12:00,74.5,57.6,29.94,ESE,123,1.0,6.0,54,0.00,,,0.00,478.0,meteohub,2013-07-24 16:12:00,
2013-07-24 09:17:00,74.8,57.4,29.95,SE,134,3.0,6.0,53,0.00,,,0.00,494.0,meteohub,2013-07-24 16:17:00,
2013-07-24 09:22:00,74.8,56.8,29.95,SSE,162,4.0,6.0,52,0.00,,,0.00,508.0,meteohub,2013-07-24 16:22:00,
2013-07-24 09:27:00,75.0,56.5,29.95,SSE,162,0.0,6.0,51,0.00,,,0.00,522.0,meteohub,2013-07-24 16:27:00,
2013-07-24 09:32:00,75.4,57.4,29.95,SSE,154,2.0,6.0,52,0.00,,,0.00,536.0,meteohub,2013-07-24 16:32:00,
2013-07-24 09:38:00,76.3,56.7,29.94,SE,146,4.0,5.0,49,0.00,,,0.00,550.0,meteohub,2013-07-24 16:38:00,
2013-07-24 09:43:00,76.5,57.4,29.94,SW,221,3.0,5.0,50,0.00,,,0.00,568.0,meteohub,2013-07-24 16:43:00,
2013-07-24 09:48:00,76.8,56.5,29.94,East,99,2.0,5.0,48,0.00,,,0.00,580.0,meteohub,2013-07-24 16:48:00,
2013-07-24 09:53:00,78.4,57.4,29.94,SE,138,2.0,5.0,47,0.00,,,0.00,592.0,meteohub,2013-07-24 16:53:00,
2013-07-24 09:58:00,77.4,56.5,29.94,ENE,66,4.0,5.0,47,0.00,,,0.00,606.0,meteohub,2013-07-24 16:58:00,
2013-07-24 10:03:00,78.1,56.5,29.94,East,92,2.0,6.0,46,0.00,,,0.00,619.0,meteohub,2013-07-24 17:03:00,
2013-07-24 10:08:00,78.6,55.2,29.94,East,90,1.0,6.0,43,0.00,,,0.00,631.0,meteohub,2013-07-24 17:08:00,
2013-07-24 10:13:00,79.3,55.4,29.94,East,88,2.0,6.0,42,0.00,,,0.00,642.0,meteohub,2013-07-24 17:13:00,
2013-07-24 10:18:00,80.1,54.7,29.94,East,80,0.0,5.0,40,0.00,,,0.00,656.0,meteohub,2013-07-24 17:18:00,
2013-07-24 10:24:00,80.2,54.9,29.94,East,80,0.0,3.0,40,0.00,,,0.00,668.0,meteohub,2013-07-24 17:24:00,
2013-07-24 10:29:00,80.2,52.9,29.94,West,266,0.0,3.0,37,0.00,,,0.00,679.0,meteohub,2013-07-24 17:29:00,
2013-07-24 10:34:00,80.6,51.6,29.94,SW,234,1.0,4.0,35,0.00,,,0.00,693.0,meteohub,2013-07-24 17:34:00,
2013-07-24 10:39:00,80.6,53.8,29.94,SSW,207,1.0,4.0,38,0.00,,,0.00,703.0,meteohub,2013-07-24 17:39:00,
2013-07-24 10:44:00,81.3,54.3,29.94,SW,229,3.0,4.0,38,0.00,,,0.00,715.0,meteohub,2013-07-24 17:44:00,
2013-07-24 10:49:00,81.9,55.6,29.94,ESE,113,4.0,6.0,39,0.00,,,0.00,724.0,meteohub,2013-07-24 17:49:00,
2013-07-24 10:54:00,82.2,50.7,29.94,NNE,29,1.0,6.0,32,0.00,,,0.00,731.0,meteohub,2013-07-24 17:54:00,
2013-07-24 10:59:00,82.0,50.5,29.94,NNW,342,0.0,6.0,32,0.00,,,0.00,745.0,meteohub,2013-07-24 17:59:00,
2013-07-24 11:04:00,82.4,50.9,29.94,West,281,6.0,6.0,32,0.00,,,0.00,640.0,meteohub,2013-07-24 18:04:00,
2013-07-24 11:09:00,81.9,49.5,29.94,NW,315,1.0,5.0,31,0.00,,,0.00,766.0,meteohub,2013-07-24 18:09:00,
2013-07-24 11:15:00,82.0,51.3,29.94,WNW,283,3.0,8.0,33,0.00,,,0.00,775.0,meteohub,2013-07-24 18:15:00,
2013-07-24 11:20:00,82.6,50.2,29.94,WNW,284,0.0,8.0,31,0.00,,,0.00,784.0,meteohub,2013-07-24 18:20:00,
2013-07-24 11:25:00,83.3,49.8,29.93,West,269,8.0,10.0,30,0.00,,,0.00,795.0,meteohub,2013-07-24 18:25:00,
2013-07-24 11:30:00,83.1,49.6,29.93,West,275,0.0,10.0,30,0.00,,,0.00,800.0,meteohub,2013-07-24 18:30:00,
2013-07-24 11:35:00,83.3,48.9,29.93,WNW,298,0.0,8.0,29,0.00,,,0.00,809.0,meteohub,2013-07-24 18:35:00,
2013-07-24 11:40:00,83.3,48.2,29.93,NW,326,1.0,8.0,28,0.00,,,0.00,817.0,meteohub,2013-07-24 18:40:00,
2013-07-24 11:45:00,83.5,48.4,29.93,West,273,3.0,8.0,28,0.00,,,0.00,823.0,meteohub,2013-07-24 18:45:00,
2013-07-24 11:51:00,83.3,47.3,29.93,WNW,298,7.0,8.0,27,0.00,,,0.00,830.0,meteohub,2013-07-24 18:51:00,
2013-07-24 11:56:00,84.4,50.0,29.92,WSW,243,1.0,8.0,29,0.00,,,0.00,837.0,meteohub,2013-07-24 18:56:00,
2013-07-24 12:01:00,84.6,49.3,29.93,WNW,296,3.0,10.0,28,0.00,,,0.00,842.0,meteohub,2013-07-24 19:01:00,
2013-07-24 12:06:00,84.6,49.3,29.92,WNW,285,5.0,10.0,28,0.00,,,0.00,849.0,meteohub,2013-07-24 19:06:00,
2013-07-24 12:11:00,84.6,50.2,29.92,WNW,284,0.0,7.0,29,0.00,,,0.00,853.0,meteohub,2013-07-24 19:11:00,
2013-07-24 12:16:00,85.5,50.0,29.92,WNW,297,2.0,7.0,28,0.00,,,0.00,860.0,meteohub,2013-07-24 19:16:00,
2013-07-24 12:21:00,85.8,49.0,29.91,SW,221,0.0,10.0,28,0.00,,,0.00,863,weatherlink.com 1.10,2013-07-24 19:21:00,
2013-07-24 12:27:00,86.9,50.4,29.92,SSW,213,0.0,10.0,27,0.00,,,0.00,868.0,meteohub,2013-07-24 19:27:00,
2013-07-24 12:32:00,86.7,50.2,29.92,West,264,1.0,8.0,27,0.00,,,0.00,870.0,meteohub,2013-07-24 19:32:00,
2013-07-24 12:37:00,86.2,49.6,29.92,West,278,4.0,8.0,27,0.00,,,0.00,874.0,meteohub,2013-07-24 19:37:00,
2013-07-24 12:42:00,87.3,49.6,29.92,West,279,2.0,8.0,26,0.00,,,0.00,877.0,meteohub,2013-07-24 19:42:00,
2013-07-24 12:47:00,88.0,51.4,29.92,WSW,256,0.0,8.0,27,0.00,,,0.00,881.0,meteohub,2013-07-24 19:47:00,
2013-07-24 12:52:00,88.0,50.4,29.92,SSW,208,1.0,6.0,26,0.00,,,0.00,877.0,meteohub,2013-07-24 19:52:00,
2013-07-24 12:57:00,88.2,50.5,29.92,NW,317,1.0,6.0,26,0.00,,,0.00,882.0,meteohub,2013-07-24 19:57:00,
2013-07-24 13:02:00,88.0,50.4,29.92,WSW,248,1.0,6.0,26,0.00,,,0.00,886.0,meteohub,2013-07-24 20:02:00,
2013-07-24 13:07:00,88.7,49.8,29.92,West,269,3.0,7.0,25,0.00,,,0.00,886.0,meteohub,2013-07-24 20:07:00,
2013-07-24 13:12:00,88.7,50.9,29.92,SSW,208,4.0,9.0,26,0.00,,,0.00,884.0,meteohub,2013-07-24 20:12:00,
2013-07-24 13:18:00,88.5,50.7,29.91,SSW,200,4.0,9.0,26,0.00,,,0.00,888.0,meteohub,2013-07-24 20:18:00,
2013-07-24 13:23:00,88.9,51.1,29.91,SW,215,0.0,9.0,26,0.00,,,0.00,888.0,meteohub,2013-07-24 20:23:00,
2013-07-24 13:28:00,89.4,52.5,29.91,SSW,209,2.0,9.0,27,0.00,,,0.00,888.0,meteohub,2013-07-24 20:28:00,
2013-07-24 13:33:00,89.4,51.6,29.91,SW,219,5.0,9.0,26,0.00,,,0.00,888.0,meteohub,2013-07-24 20:33:00,
2013-07-24 13:38:00,89.6,51.6,29.91,SW,227,7.0,11.0,26,0.00,,,0.00,886.0,meteohub,2013-07-24 20:38:00,
2013-07-24 13:43:00,89.6,51.6,29.91,WSW,249,3.0,11.0,26,0.00,,,0.00,882.0,meteohub,2013-07-24 20:43:00,
2013-07-24 13:48:00,90.0,53.1,29.91,West,265,4.0,11.0,27,0.00,,,0.00,879.0,meteohub,2013-07-24 20:48:00,
2013-07-24 13:53:00,90.0,52.0,29.90,WNW,284,4.0,10.0,26,0.00,,,0.00,877.0,meteohub,2013-07-24 20:53:00,
2013-07-24 13:58:00,89.1,50.2,29.91,WNW,301,4.0,10.0,25,0.00,,,0.00,872.0,meteohub,2013-07-24 20:58:00,
2013-07-24 14:03:00,88.9,50.0,29.91,West,273,6.0,12.0,25,0.00,,,0.00,868.0,meteohub,2013-07-24 21:03:00,
2013-07-24 14:09:00,89.4,48.4,29.90,WNW,302,4.0,12.0,23,0.00,,,0.00,865.0,meteohub,2013-07-24 21:09:00,
2013-07-24 14:14:00,89.4,49.5,29.90,WNW,292,6.0,11.0,24,0.00,,,0.00,861.0,meteohub,2013-07-24 21:14:00,
2013-07-24 14:19:00,89.2,49.3,29.90,WNW,301,0.0,11.0,24,0.00,,,0.00,856.0,meteohub,2013-07-24 21:19:00,
2013-07-24 14:24:00,90.5,48.2,29.90,WNW,293,1.0,10.0,22,0.00,,,0.00,854.0,meteohub,2013-07-24 21:24:00,
2013-07-24 14:29:00,90.5,49.1,29.90,West,278,5.0,10.0,23,0.00,,,0.00,847.0,meteohub,2013-07-24 21:29:00,
2013-07-24 14:34:00,91.0,49.6,29.90,West,266,6.0,10.0,23,0.00,,,0.00,842.0,meteohub,2013-07-24 21:34:00,
2013-07-24 14:39:00,91.0,47.3,29.90,WSW,254,6.0,10.0,21,0.00,,,0.00,835.0,meteohub,2013-07-24 21:39:00,
2013-07-24 14:44:00,91.9,45.5,29.90,WSW,240,7.0,10.0,19,0.00,,,0.00,830.0,meteohub,2013-07-24 21:44:00,
2013-07-24 14:49:00,92.1,43.0,29.89,SW,229,2.0,10.0,17,0.00,,,0.00,824.0,meteohub,2013-07-24 21:49:00,
2013-07-24 14:55:00,92.3,45.9,29.89,South,191,3.0,10.0,19,0.00,,,0.00,816.0,meteohub,2013-07-24 21:55:00,
2013-07-24 15:00:00,92.1,44.4,29.89,SW,235,1.0,10.0,18,0.00,,,0.00,810.0,meteohub,2013-07-24 22:00:00,
2013-07-24 15:05:00,92.3,44.6,29.89,SW,215,5.0,10.0,18,0.00,,,0.00,798.0,meteohub,2013-07-24 22:05:00,
2013-07-24 15:10:00,92.3,45.9,29.89,West,277,10.0,10.0,19,0.00,,,0.00,789.0,meteohub,2013-07-24 22:10:00,
2013-07-24 15:15:00,92.3,44.6,29.89,West,273,3.0,11.0,18,0.00,,,0.00,788.0,meteohub,2013-07-24 22:15:00,
2013-07-24 15:20:00,92.1,44.4,29.89,SSW,203,3.0,11.0,18,0.00,,,0.00,777.0,meteohub,2013-07-24 22:20:00,
2013-07-24 15:25:00,92.1,43.0,29.89,SW,231,3.0,11.0,17,0.00,,,0.00,766.0,meteohub,2013-07-24 22:25:00,
2013-07-24 15:30:00,92.7,44.8,29.89,SW,229,2.0,11.0,18,0.00,,,0.00,761.0,meteohub,2013-07-24 22:30:00,
2013-07-24 15:35:00,92.8,43.7,29.88,WNW,296,2.0,10.0,17,0.00,,,0.00,751.0,meteohub,2013-07-24 22:35:00,
2013-07-24 15:41:00,93.4,44.1,29.88,SW,235,5.0,10.0,17,0.00,,,0.00,740.0,meteohub,2013-07-24 22:41:00,
2013-07-24 15:46:00,92.3,41.7,29.88,South,175,7.0,9.0,16,0.00,,,0.00,729.0,meteohub,2013-07-24 22:46:00,
2013-07-24 15:51:00,92.7,41.9,29.88,SSW,197,4.0,10.0,16,0.00,,,0.00,717.0,meteohub,2013-07-24 22:51:00,
2013-07-24 15:56:00,92.5,41.7,29.88,SW,219,2.0,10.0,16,0.00,,,0.00,708.0,meteohub,2013-07-24 22:56:00,
2013-07-24 16:02:00,92.3,41.7,29.88,SW,227,10.0,10.0,16,0.00,,,0.00,696.0,meteohub,2013-07-24 23:02:00,
2013-07-24 16:07:00,92.1,41.5,29.88,SW,221,6.0,11.0,16,0.00,,,0.00,686.0,meteohub,2013-07-24 23:07:00,
2013-07-24 16:12:00,92.5,43.3,29.87,SW,223,8.0,11.0,17,0.00,,,0.00,675.0,meteohub,2013-07-24 23:12:00,
2013-07-24 16:17:00,92.1,43.0,29.87,SSW,202,2.0,11.0,17,0.00,,,0.00,663.0,meteohub,2013-07-24 23:17:00,
2013-07-24 16:22:00,92.7,41.9,29.87,West,279,7.0,10.0,16,0.00,,,0.00,650.0,meteohub,2013-07-24 23:22:00,
2013-07-24 16:27:00,91.9,41.2,29.87,West,259,2.0,10.0,16,0.00,,,0.00,640.0,meteohub,2013-07-24 23:27:00,
2013-07-24 16:32:00,91.6,41.0,29.87,SSW,198,1.0,11.0,16,0.00,,,0.00,626.0,meteohub,2013-07-24 23:32:00,
2013-07-24 16:37:00,91.8,39.6,29.87,WSW,240,5.0,11.0,15,0.00,,,0.00,612.0,meteohub,2013-07-24 23:37:00,
2013-07-24 16:42:00,91.4,40.8,29.87,SW,219,8.0,10.0,16,0.00,,,0.00,598.0,meteohub,2013-07-24 23:42:00,
2013-07-24 16:47:00,91.0,40.5,29.87,SW,234,9.0,10.0,16,0.00,,,0.00,585.0,meteohub,2013-07-24 23:47:00,
2013-07-24 16:52:00,91.0,40.5,29.87,West,265,5.0,12.0,16,0.00,,,0.00,570.0,meteohub,2013-07-24 23:52:00,
2013-07-24 16:57:00,90.7,41.7,29.87,SW,223,6.0,13.0,17,0.00,,,0.00,559.0,meteohub,2013-07-24 23:57:00,
2013-07-24 17:02:00,90.3,44.4,29.86,SW,216,6.0,13.0,19,0.00,,,0.00,543.0,meteohub,2013-07-25 00:02:00,
2013-07-24 17:07:00,90.0,45.1,29.86,West,272,3.0,13.0,20,0.00,,,0.00,531.0,meteohub,2013-07-25 00:07:00,
2013-07-24 17:12:00,90.1,44.2,29.86,WSW,246,3.0,11.0,19,0.00,,,0.00,515.0,meteohub,2013-07-25 00:12:00,
2013-07-24 17:17:00,90.5,44.4,29.86,WSW,248,2.0,10.0,19,0.00,,,0.00,503.0,meteohub,2013-07-25 00:17:00,
2013-07-24 17:22:00,89.8,46.4,29.87,SSW,211,7.0,10.0,21,0.00,,,0.00,489.0,meteohub,2013-07-25 00:22:00,
2013-07-24 17:27:00,89.6,46.2,29.87,SW,234,2.0,10.0,21,0.00,,,0.00,478.0,meteohub,2013-07-25 00:27:00,
2013-07-24 17:32:00,89.4,46.0,29.87,SSW,211,6.0,9.0,21,0.00,,,0.00,471.0,meteohub,2013-07-25 00:32:00,
2013-07-24 17:37:00,88.5,46.6,29.86,West,274,5.0,9.0,22,0.00,,,0.00,359.0,meteohub,2013-07-25 00:37:00,
2013-07-24 17:42:00,88.0,47.3,29.86,WSW,247,6.0,11.0,23,0.00,,,0.00,381.0,meteohub,2013-07-25 00:42:00,
2013-07-24 17:47:00,87.8,48.0,29.86,West,259,2.0,11.0,24,0.00,,,0.00,422.0,meteohub,2013-07-25 00:47:00,
2013-07-24 17:52:00,87.1,48.6,29.86,SW,230,5.0,11.0,25,0.00,,,0.00,410.0,meteohub,2013-07-25 00:52:00,
2013-07-24 17:57:00,86.9,49.3,29.86,SW,223,5.0,11.0,26,0.00,,,0.00,260.0,meteohub,2013-07-25 00:57:00,
2013-07-24 18:02:00,86.7,49.1,29.86,SSW,213,4.0,11.0,26,0.00,,,0.00,304.0,meteohub,2013-07-25 01:02:00,
2013-07-24 18:08:00,87.1,50.4,29.86,SSW,198,2.0,11.0,27,0.00,,,0.00,329.0,meteohub,2013-07-25 01:08:00,
2013-07-24 18:13:00,86.7,52.0,29.86,South,186,2.0,9.0,29,0.00,,,0.00,339.0,meteohub,2013-07-25 01:13:00,
2013-07-24 18:18:00,86.4,52.7,29.86,SSW,211,3.0,7.0,30,0.00,,,0.00,329.0,meteohub,2013-07-25 01:18:00,
2013-07-24 18:23:00,86.5,52.9,29.86,SW,214,3.0,7.0,30,0.00,,,0.00,313.0,meteohub,2013-07-25 01:23:00,
2013-07-24 18:28:00,85.8,53.1,29.86,SSW,194,1.0,7.0,31,0.00,,,0.00,297.0,meteohub,2013-07-25 01:28:00,
2013-07-24 18:33:00,86.0,52.3,29.86,SSW,207,4.0,8.0,30,0.00,,,0.00,272.0,meteohub,2013-07-25 01:33:00,
2013-07-24 18:38:00,85.8,51.3,29.86,WSW,240,3.0,8.0,29,0.00,,,0.00,257.0,meteohub,2013-07-25 01:38:00,
2013-07-24 18:43:00,85.6,51.1,29.86,SW,216,1.0,8.0,29,0.00,,,0.00,236.0,meteohub,2013-07-25 01:43:00,
2013-07-24 18:48:00,85.8,52.2,29.86,North,9,5.0,8.0,30,0.00,,,0.00,221.0,meteohub,2013-07-25 01:48:00,
2013-07-24 18:54:00,85.1,51.6,29.86,West,275,5.0,7.0,30,0.00,,,0.00,204.0,meteohub,2013-07-25 01:54:00,
2013-07-24 18:59:00,83.8,51.4,29.86,West,273,9.0,9.0,31,0.00,,,0.00,186.0,meteohub,2013-07-25 01:59:00,
2013-07-24 19:04:00,83.5,51.1,29.86,SW,234,5.0,10.0,31,0.00,,,0.00,167.0,meteohub,2013-07-25 02:04:00,
2013-07-24 19:09:00,83.5,52.0,29.86,West,269,6.0,12.0,32,0.00,,,0.00,148.0,meteohub,2013-07-25 02:09:00,
2013-07-24 19:14:00,83.5,51.8,29.86,SW,223,6.0,16.0,32,0.00,,,0.00,132.0,meteohub,2013-07-25 02:14:00,
2013-07-24 19:19:00,83.3,51.6,29.86,West,267,1.0,16.0,32,0.00,,,0.00,114.0,meteohub,2013-07-25 02:19:00,
2013-07-24 19:24:00,82.8,51.1,29.86,WSW,245,2.0,10.0,32,0.00,,,0.00,97.0,meteohub,2013-07-25 02:24:00,
2013-07-24 19:29:00,82.4,51.6,29.86,WNW,284,1.0,9.0,33,0.00,,,0.00,81.0,meteohub,2013-07-25 02:29:00,
2013-07-24 19:35:00,82.0,52.9,29.86,SSW,198,3.0,9.0,35,0.00,,,0.00,67.0,meteohub,2013-07-25 02:35:00,
2013-07-24 19:40:00,80.8,53.8,29.86,SSW,198,3.0,9.0,38,0.00,,,0.00,54.0,meteohub,2013-07-25 02:40:00,
2013-07-24 19:45:00,79.9,54.5,29.87,SSW,208,2.0,8.0,40,0.00,,,0.00,33.0,meteohub,2013-07-25 02:45:00,
2013-07-24 19:50:00,79.0,54.1,29.87,SW,219,3.0,5.0,41,0.00,,,0.00,18.0,meteohub,2013-07-25 02:50:00,
2013-07-24 19:55:00,78.3,54.9,29.87,SSW,211,0.0,5.0,43,0.00,,,0.00,16.0,meteohub,2013-07-25 02:55:00,
2013-07-24 20:00:00,77.4,54.7,29.87,SSW,200,4.0,5.0,44,0.00,,,0.00,12.0,meteohub,2013-07-25 03:00:00,
2013-07-24 20:05:00,76.6,55.2,29.87,SSW,196,3.0,6.0,46,0.00,,,0.00,11.0,meteohub,2013-07-25 03:05:00,
2013-07-24 20:10:00,75.9,55.2,29.87,South,190,1.0,6.0,47,0.00,,,0.00,9.0,meteohub,2013-07-25 03:10:00,
2013-07-24 20:15:00,75.0,54.9,29.87,South,190,2.0,6.0,48,0.00,,,0.00,7.0,meteohub,2013-07-25 03:15:00,
2013-07-24 20:20:00,74.8,54.5,29.88,SE,126,1.0,4.0,48,0.00,,,0.00,5.0,meteohub,2013-07-25 03:20:00,
2013-07-24 20:25:00,74.5,54.9,29.88,South,186,2.0,5.0,49,0.00,,,0.00,0.0,meteohub,2013-07-25 03:25:00,
2013-07-24 20:31:00,74.3,55.2,29.88,South,186,2.0,5.0,50,0.00,,,0.00,0.0,meteohub,2013-07-25 03:31:00,
2013-07-24 20:36:00,73.9,54.9,29.88,South,184,0.0,5.0,50,0.00,,,0.00,0.0,meteohub,2013-07-25 03:36:00,
2013-07-24 20:41:00,73.2,54.7,29.88,South,183,2.0,4.0,51,0.00,,,0.00,0.0,meteohub,2013-07-25 03:41:00,
2013-07-24 20:46:00,72.7,54.9,29.88,South,183,2.0,4.0,52,0.00,,,0.00,0.0,meteohub,2013-07-25 03:46:00,
2013-07-24 20:51:00,72.5,54.7,29.88,South,183,0.0,3.0,52,0.00,,,0.00,0.0,meteohub,2013-07-25 03:51:00,
2013-07-24 20:56:00,72.0,55.2,29.88,South,183,2.0,3.0,54,0.00,,,0.00,0.0,meteohub,2013-07-25 03:56:00,
2013-07-24 21:01:00,71.6,54.9,29.88,South,183,1.0,2.0,54,0.00,,,0.00,0.0,meteohub,2013-07-25 04:01:00,
2013-07-24 21:02:00,71.4,54.7,29.88,South,183,0.0,2.0,54,0.00,,,0.00,0.0,meteohub,2013-07-25 04:02:00,
2013-07-24 21:08:00,71.4,54.7,29.88,South,183,1.0,2.0,54,0.00,,,0.00,0.0,meteohub,2013-07-25 04:08:00,
2013-07-24 21:13:00,70.9,54.7,29.89,SSE,150,1.0,2.0,55,0.00,,,0.00,0.0,meteohub,2013-07-25 04:13:00,
2013-07-24 21:18:00,70.7,55.0,29.89,South,173,1.0,4.0,56,0.00,,,0.00,0.0,meteohub,2013-07-25 04:18:00,
2013-07-24 21:23:00,70.3,54.9,29.89,SE,132,1.0,4.0,57,0.00,,,0.00,0.0,meteohub,2013-07-25 04:23:00,
2013-07-24 21:28:00,69.8,54.9,29.89,SE,137,2.0,5.0,58,0.00,,,0.00,0.0,meteohub,2013-07-25 04:28:00,
2013-07-24 21:33:00,69.3,54.9,29.89,SE,130,3.0,5.0,59,0.00,,,0.00,0.0,meteohub,2013-07-25 04:33:00,
2013-07-24 21:39:00,68.9,55.0,29.89,SSE,151,1.0,5.0,60,0.00,,,0.00,0.0,meteohub,2013-07-25 04:39:00,
2013-07-24 21:44:00,68.7,54.9,29.90,SSE,151,1.0,4.0,60,0.00,,,0.00,0.0,meteohub,2013-07-25 04:44:00,
2013-07-24 21:49:00,68.5,55.0,29.90,SSE,151,1.0,4.0,61,0.00,,,0.00,0.0,meteohub,2013-07-25 04:49:00,
2013-07-24 21:54:00,68.4,54.9,29.90,SSE,151,0.0,4.0,61,0.00,,,0.00,0.0,meteohub,2013-07-25 04:54:00,
2013-07-24 21:59:00,67.8,55.4,29.90,SSE,151,0.0,3.0,63,0.00,,,0.00,0.0,meteohub,2013-07-25 04:59:00,
2013-07-24 22:04:00,67.6,55.2,29.90,SSE,151,0.0,3.0,63,0.00,,,0.00,0.0,meteohub,2013-07-25 05:04:00,
2013-07-24 22:09:00,67.5,55.0,29.90,SSE,151,0.0,3.0,63,0.00,,,0.00,0.0,meteohub,2013-07-25 05:09:00,
2013-07-24 22:14:00,67.5,55.0,29.90,SSE,151,0.0,1.0,63,0.00,,,0.00,0.0,meteohub,2013-07-25 05:14:00,
2013-07-24 22:20:00,67.1,55.0,29.90,SSE,151,0.0,1.0,64,0.00,,,0.00,0.0,meteohub,2013-07-25 05:20:00,
2013-07-24 22:25:00,66.4,54.9,29.90,SSE,151,0.0,0.0,65,0.00,,,0.00,0.0,meteohub,2013-07-25 05:25:00,
2013-07-24 22:30:00,66.6,55.0,29.90,SSE,148,2.0,2.0,65,0.00,,,0.00,0.0,meteohub,2013-07-25 05:30:00,
2013-07-24 22:35:00,66.7,55.2,29.90,SSE,148,0.0,1.0,65,0.00,,,0.00,0.0,meteohub,2013-07-25 05:35:00,
2013-07-24 22:40:00,66.7,54.7,29.90,SSE,148,2.0,4.0,64,0.00,,,0.00,0.0,meteohub,2013-07-25 05:40:00,
2013-07-24 22:45:00,66.6,54.5,29.90,SSE,148,1.0,3.0,64,0.00,,,0.00,0.0,meteohub,2013-07-25 05:45:00,
2013-07-24 22:50:00,66.2,54.1,29.90,SSE,148,1.0,3.0,64,0.00,,,0.00,0.0,meteohub,2013-07-25 05:50:00,
2013-07-24 22:55:00,66.0,54.7,29.90,SE,144,0.0,3.0,66,0.00,,,0.00,0.0,meteohub,2013-07-25 05:55:00,
2013-07-24 23:00:00,65.8,54.5,29.90,SE,144,0.0,3.0,66,0.00,,,0.00,0.0,meteohub,2013-07-25 06:00:00,
2013-07-24 23:05:00,65.5,54.7,29.90,SE,144,0.0,2.0,67,0.00,,,0.00,0.0,meteohub,2013-07-25 06:05:00,
2013-07-24 23:11:00,65.1,54.3,29.90,SE,134,0.0,2.0,67,0.00,,,0.00,0.0,meteohub,2013-07-25 06:11:00,
2013-07-24 23:16:00,65.1,54.3,29.90,SE,134,0.0,2.0,67,0.00,,,0.00,0.0,meteohub,2013-07-25 06:16:00,
2013-07-24 23:21:00,64.8,54.0,29.90,SE,134,0.0,2.0,67,0.00,,,0.00,0.0,meteohub,2013-07-25 06:21:00,
2013-07-24 23:26:00,64.6,53.8,29.91,SSE,157,0.0,2.0,67,0.00,,,0.00,0.0,meteohub,2013-07-25 06:26:00,
2013-07-24 23:31:00,64.9,53.8,29.91,SSE,157,0.0,3.0,66,0.00,,,0.00,0.0,meteohub,2013-07-25 06:31:00,
2013-07-24 23:36:00,64.4,53.6,29.91,SSE,157,0.0,3.0,67,0.00,,,0.00,0.0,meteohub,2013-07-25 06:36:00,
2013-07-24 23:41:00,64.4,53.6,29.91,SSE,157,0.0,3.0,67,0.00,,,0.00,0.0,meteohub,2013-07-25 06:41:00,
2013-07-24 23:46:00,64.8,53.6,29.91,SSE,157,0.0,1.0,66,0.00,,,0.00,0.0,meteohub,2013-07-25 06:46:00,
2013-07-24 23:51:00,64.6,53.4,29.91,SSE,157,0.0,1.0,66,0.00,,,0.00,0.0,meteohub,2013-07-25 06:51:00,
2013-07-24 23:57:00,64.4,53.2,29.91,SSE,157,0.0,1.0,66,0.00,,,0.00,0.0,meteohub,2013-07-25 06:57:00,